sensor_id;sensor_type;location;lat;lon;timestamp;P1;durP1;ratioP1;P2;durP2;ratioP2
50066;SDS011;35952;52.524;13.340;2023-05-02T00:00:28;12.00;;;8.67;;
50066;SDS011;35952;52.524;13.340;2023-05-02T00:02:54;7.33;;;6.70;;
50066;SDS011;35952;52.524;13.340;2023-05-02T00:05:20;8.73;;;8.03;;
50066;SDS011;35952;52.524;13.340;2023-05-02T00:07:46;8.80;;;8.00;;
50066;SDS011;35952;52.524;13.340;2023-05-02T00:10:12;9.20;;;8.30;;
50066;SDS011;35952;52.524;13.340;2023-05-02T00:12:37;9.37;;;8.47;;
50066;SDS011;35952;52.524;13.340;2023-05-02T00:15:03;9.57;;;8.50;;
50066;SDS011;35952;52.524;13.340;2023-05-02T00:17:30;12.23;;;8.70;;
50066;SDS011;35952;52.524;13.340;2023-05-02T00:19:55;10.20;;;8.50;;
50066;SDS011;35952;52.524;13.340;2023-05-02T00:22:21;9.00;;;8.20;;
50066;SDS011;35952;52.524;13.340;2023-05-02T00:24:46;12.73;;;9.27;;
50066;SDS011;35952;52.524;13.340;2023-05-02T00:27:12;9.50;;;7.90;;
50066;SDS011;35952;52.524;13.340;2023-05-02T00:29:38;12.53;;;9.30;;
50066;SDS011;35952;52.524;13.340;2023-05-02T00:32:04;10.60;;;8.53;;
50066;SDS011;35952;52.524;13.340;2023-05-02T00:34:31;9.57;;;8.50;;
50066;SDS011;35952;52.524;13.340;2023-05-02T00:36:57;9.80;;;8.90;;
50066;SDS011;35952;52.524;13.340;2023-05-02T00:39:23;12.40;;;8.57;;
50066;SDS011;35952;52.524;13.340;2023-05-02T00:41:48;9.30;;;8.40;;
50066;SDS011;35952;52.524;13.340;2023-05-02T00:44:20;9.33;;;8.10;;
50066;SDS011;35952;52.524;13.340;2023-05-02T00:46:46;9.87;;;8.53;;
50066;SDS011;35952;52.524;13.340;2023-05-02T00:49:12;10.03;;;8.37;;
50066;SDS011;35952;52.524;13.340;2023-05-02T00:51:37;9.13;;;8.30;;
50066;SDS011;35952;52.524;13.340;2023-05-02T00:54:04;9.10;;;7.30;;
50066;SDS011;35952;52.524;13.340;2023-05-02T00:56:30;9.10;;;8.37;;
50066;SDS011;35952;52.524;13.340;2023-05-02T00:58:57;8.80;;;7.90;;
50066;SDS011;35952;52.524;13.340;2023-05-02T01:04:16;10.90;;;8.37;;
50066;SDS011;35952;52.524;13.340;2023-05-02T01:10:02;11.03;;;8.13;;
50066;SDS011;35952;52.524;13.340;2023-05-02T01:12:32;9.37;;;8.47;;
50066;SDS011;35952;52.524;13.340;2023-05-02T01:15:07;13.50;;;9.07;;
50066;SDS011;35952;52.524;13.340;2023-05-02T01:17:36;8.77;;;7.83;;
50066;SDS011;35952;52.524;13.340;2023-05-02T01:20:04;10.13;;;9.17;;
50066;SDS011;35952;52.524;13.340;2023-05-02T01:22:33;9.67;;;8.87;;
50066;SDS011;35952;52.524;13.340;2023-05-02T01:28:09;9.43;;;8.53;;
50066;SDS011;35952;52.524;13.340;2023-05-02T01:30:47;9.87;;;8.70;;
50066;SDS011;35952;52.524;13.340;2023-05-02T01:33:15;9.87;;;8.67;;
50066;SDS011;35952;52.524;13.340;2023-05-02T01:35:43;8.73;;;7.93;;
50066;SDS011;35952;52.524;13.340;2023-05-02T01:38:14;9.00;;;8.00;;
50066;SDS011;35952;52.524;13.340;2023-05-02T01:40:43;8.43;;;7.47;;
50066;SDS011;35952;52.524;13.340;2023-05-02T01:43:11;8.63;;;7.80;;
50066;SDS011;35952;52.524;13.340;2023-05-02T01:45:38;9.63;;;8.83;;
50066;SDS011;35952;52.524;13.340;2023-05-02T01:48:07;9.30;;;7.87;;
50066;SDS011;35952;52.524;13.340;2023-05-02T01:50:34;8.87;;;7.90;;
50066;SDS011;35952;52.524;13.340;2023-05-02T01:53:01;11.17;;;8.47;;
50066;SDS011;35952;52.524;13.340;2023-05-02T01:55:28;10.10;;;9.00;;
50066;SDS011;35952;52.524;13.340;2023-05-02T01:57:55;9.60;;;8.60;;
50066;SDS011;35952;52.524;13.340;2023-05-02T02:00:21;9.27;;;8.33;;
50066;SDS011;35952;52.524;13.340;2023-05-02T02:02:49;11.80;;;8.33;;
50066;SDS011;35952;52.524;13.340;2023-05-02T02:05:16;13.30;;;9.47;;
50066;SDS011;35952;52.524;13.340;2023-05-02T02:07:43;8.97;;;7.83;;
50066;SDS011;35952;52.524;13.340;2023-05-02T02:10:09;12.40;;;8.60;;
50066;SDS011;35952;52.524;13.340;2023-05-02T02:12:41;9.57;;;7.83;;
50066;SDS011;35952;52.524;13.340;2023-05-02T02:17:48;9.40;;;8.43;;
50066;SDS011;35952;52.524;13.340;2023-05-02T02:20:19;9.60;;;8.60;;
50066;SDS011;35952;52.524;13.340;2023-05-02T02:22:46;8.63;;;7.73;;
50066;SDS011;35952;52.524;13.340;2023-05-02T02:25:15;8.83;;;7.70;;
50066;SDS011;35952;52.524;13.340;2023-05-02T02:27:42;12.27;;;8.13;;
50066;SDS011;35952;52.524;13.340;2023-05-02T02:30:08;9.03;;;8.13;;
50066;SDS011;35952;52.524;13.340;2023-05-02T02:32:34;8.10;;;7.40;;
50066;SDS011;35952;52.524;13.340;2023-05-02T02:35:00;9.23;;;7.30;;
50066;SDS011;35952;52.524;13.340;2023-05-02T02:37:31;7.93;;;7.13;;
50066;SDS011;35952;52.524;13.340;2023-05-02T02:39:59;8.73;;;7.97;;
50066;SDS011;35952;52.524;13.340;2023-05-02T02:42:36;9.67;;;7.70;;
50066;SDS011;35952;52.524;13.340;2023-05-02T02:45:13;8.37;;;7.60;;
50066;SDS011;35952;52.524;13.340;2023-05-02T02:48:18;7.87;;;6.97;;
50066;SDS011;35952;52.524;13.340;2023-05-02T02:51:07;10.90;;;8.43;;
50066;SDS011;35952;52.524;13.340;2023-05-02T02:53:42;8.40;;;7.37;;
50066;SDS011;35952;52.524;13.340;2023-05-02T02:56:29;8.00;;;7.40;;
50066;SDS011;35952;52.524;13.340;2023-05-02T03:01:45;8.90;;;7.47;;
50066;SDS011;35952;52.524;13.340;2023-05-02T03:04:17;9.23;;;7.47;;
50066;SDS011;35952;52.524;13.340;2023-05-02T03:06:43;7.60;;;6.93;;
50066;SDS011;35952;52.524;13.340;2023-05-02T03:09:15;9.57;;;7.70;;
50066;SDS011;35952;52.524;13.340;2023-05-02T03:11:44;7.90;;;6.83;;
50066;SDS011;35952;52.524;13.340;2023-05-02T03:14:10;7.83;;;7.10;;
50066;SDS011;35952;52.524;13.340;2023-05-02T03:16:39;7.80;;;7.10;;
50066;SDS011;35952;52.524;13.340;2023-05-02T03:19:05;6.70;;;5.70;;
50066;SDS011;35952;52.524;13.340;2023-05-02T03:21:32;9.10;;;6.43;;
50066;SDS011;35952;52.524;13.340;2023-05-02T03:23:59;7.13;;;6.43;;
50066;SDS011;35952;52.524;13.340;2023-05-02T03:26:25;7.43;;;5.83;;
50066;SDS011;35952;52.524;13.340;2023-05-02T03:28:52;7.80;;;6.87;;
50066;SDS011;35952;52.524;13.340;2023-05-02T03:31:18;10.07;;;6.30;;
50066;SDS011;35952;52.524;13.340;2023-05-02T03:33:43;6.70;;;6.00;;
50066;SDS011;35952;52.524;13.340;2023-05-02T03:36:09;7.17;;;6.47;;
50066;SDS011;35952;52.524;13.340;2023-05-02T03:38:35;8.07;;;7.10;;
50066;SDS011;35952;52.524;13.340;2023-05-02T03:41:01;7.40;;;6.63;;
50066;SDS011;35952;52.524;13.340;2023-05-02T03:43:27;7.23;;;6.53;;
50066;SDS011;35952;52.524;13.340;2023-05-02T03:45:52;8.33;;;7.53;;
50066;SDS011;35952;52.524;13.340;2023-05-02T03:48:18;7.57;;;6.83;;
50066;SDS011;35952;52.524;13.340;2023-05-02T03:50:43;12.77;;;7.20;;
50066;SDS011;35952;52.524;13.340;2023-05-02T03:53:09;7.93;;;7.23;;
50066;SDS011;35952;52.524;13.340;2023-05-02T03:55:41;7.87;;;6.83;;
50066;SDS011;35952;52.524;13.340;2023-05-02T03:58:08;6.83;;;6.23;;
50066;SDS011;35952;52.524;13.340;2023-05-02T04:00:34;8.77;;;7.47;;
50066;SDS011;35952;52.524;13.340;2023-05-02T04:03:00;10.30;;;5.90;;
50066;SDS011;35952;52.524;13.340;2023-05-02T04:05:26;6.47;;;5.90;;
50066;SDS011;35952;52.524;13.340;2023-05-02T04:07:52;8.73;;;7.83;;
50066;SDS011;35952;52.524;13.340;2023-05-02T04:10:18;7.07;;;6.47;;
50066;SDS011;35952;52.524;13.340;2023-05-02T04:12:43;7.90;;;6.20;;
50066;SDS011;35952;52.524;13.340;2023-05-02T04:15:09;7.57;;;6.70;;
50066;SDS011;35952;52.524;13.340;2023-05-02T04:17:41;9.53;;;6.70;;
50066;SDS011;35952;52.524;13.340;2023-05-02T04:20:07;8.40;;;6.60;;
50066;SDS011;35952;52.524;13.340;2023-05-02T04:22:33;6.83;;;6.10;;
50066;SDS011;35952;52.524;13.340;2023-05-02T04:24:58;7.53;;;6.40;;
50066;SDS011;35952;52.524;13.340;2023-05-02T04:27:24;8.13;;;6.10;;
50066;SDS011;35952;52.524;13.340;2023-05-02T04:29:50;6.63;;;6.03;;
50066;SDS011;35952;52.524;13.340;2023-05-02T04:32:16;10.00;;;5.90;;
50066;SDS011;35952;52.524;13.340;2023-05-02T04:34:42;6.67;;;5.87;;
50066;SDS011;35952;52.524;13.340;2023-05-02T04:37:07;6.43;;;4.67;;
50066;SDS011;35952;52.524;13.340;2023-05-02T04:39:35;9.30;;;6.03;;
50066;SDS011;35952;52.524;13.340;2023-05-02T04:42:00;5.50;;;5.00;;
50066;SDS011;35952;52.524;13.340;2023-05-02T04:44:27;6.00;;;4.73;;
50066;SDS011;35952;52.524;13.340;2023-05-02T04:46:52;7.30;;;5.33;;
50066;SDS011;35952;52.524;13.340;2023-05-02T04:49:18;7.40;;;5.77;;
50066;SDS011;35952;52.524;13.340;2023-05-02T04:51:44;8.47;;;5.20;;
50066;SDS011;35952;52.524;13.340;2023-05-02T04:54:10;5.63;;;5.10;;
50066;SDS011;35952;52.524;13.340;2023-05-02T04:56:36;5.43;;;4.93;;
50066;SDS011;35952;52.524;13.340;2023-05-02T04:59:02;12.80;;;5.07;;
50066;SDS011;35952;52.524;13.340;2023-05-02T05:01:28;10.90;;;5.37;;
50066;SDS011;35952;52.524;13.340;2023-05-02T05:03:54;12.43;;;5.73;;
50066;SDS011;35952;52.524;13.340;2023-05-02T05:06:20;5.73;;;5.23;;
50066;SDS011;35952;52.524;13.340;2023-05-02T05:08:46;7.27;;;5.53;;
50066;SDS011;35952;52.524;13.340;2023-05-02T05:11:12;7.97;;;5.50;;
50066;SDS011;35952;52.524;13.340;2023-05-02T05:13:39;9.87;;;5.30;;
50066;SDS011;35952;52.524;13.340;2023-05-02T05:16:06;8.20;;;5.83;;
50066;SDS011;35952;52.524;13.340;2023-05-02T05:18:31;6.97;;;6.30;;
50066;SDS011;35952;52.524;13.340;2023-05-02T05:21:04;5.57;;;4.80;;
50066;SDS011;35952;52.524;13.340;2023-05-02T05:23:36;8.93;;;5.70;;
50066;SDS011;35952;52.524;13.340;2023-05-02T05:26:09;10.03;;;6.87;;
50066;SDS011;35952;52.524;13.340;2023-05-02T05:28:35;11.10;;;5.93;;
50066;SDS011;35952;52.524;13.340;2023-05-02T05:31:05;11.23;;;6.00;;
50066;SDS011;35952;52.524;13.340;2023-05-02T05:33:31;7.50;;;6.20;;
50066;SDS011;35952;52.524;13.340;2023-05-02T05:36:03;9.40;;;5.63;;
50066;SDS011;35952;52.524;13.340;2023-05-02T05:38:29;8.10;;;6.20;;
50066;SDS011;35952;52.524;13.340;2023-05-02T05:40:55;6.57;;;5.67;;
50066;SDS011;35952;52.524;13.340;2023-05-02T05:43:20;7.00;;;5.70;;
50066;SDS011;35952;52.524;13.340;2023-05-02T05:45:46;6.83;;;5.67;;
50066;SDS011;35952;52.524;13.340;2023-05-02T05:48:11;7.40;;;6.10;;
50066;SDS011;35952;52.524;13.340;2023-05-02T05:50:37;5.97;;;4.97;;
50066;SDS011;35952;52.524;13.340;2023-05-02T05:53:02;8.47;;;5.60;;
50066;SDS011;35952;52.524;13.340;2023-05-02T05:55:28;5.97;;;5.40;;
50066;SDS011;35952;52.524;13.340;2023-05-02T05:57:53;6.90;;;6.03;;
50066;SDS011;35952;52.524;13.340;2023-05-02T06:00:19;5.90;;;5.33;;
50066;SDS011;35952;52.524;13.340;2023-05-02T06:02:45;7.30;;;6.53;;
50066;SDS011;35952;52.524;13.340;2023-05-02T06:05:10;6.53;;;5.93;;
50066;SDS011;35952;52.524;13.340;2023-05-02T06:07:36;7.33;;;6.40;;
50066;SDS011;35952;52.524;13.340;2023-05-02T06:10:01;8.20;;;6.50;;
50066;SDS011;35952;52.524;13.340;2023-05-02T06:12:27;9.77;;;6.90;;
50066;SDS011;35952;52.524;13.340;2023-05-02T06:14:52;7.57;;;6.73;;
50066;SDS011;35952;52.524;13.340;2023-05-02T06:17:18;8.43;;;7.03;;
50066;SDS011;35952;52.524;13.340;2023-05-02T06:19:43;7.70;;;6.73;;
50066;SDS011;35952;52.524;13.340;2023-05-02T06:22:10;11.60;;;8.03;;
50066;SDS011;35952;52.524;13.340;2023-05-02T06:24:37;14.70;;;7.90;;
50066;SDS011;35952;52.524;13.340;2023-05-02T06:27:02;9.27;;;7.03;;
50066;SDS011;35952;52.524;13.340;2023-05-02T06:29:28;12.50;;;7.33;;
50066;SDS011;35952;52.524;13.340;2023-05-02T06:31:54;11.20;;;7.37;;
50066;SDS011;35952;52.524;13.340;2023-05-02T06:34:20;9.73;;;8.50;;
50066;SDS011;35952;52.524;13.340;2023-05-02T06:36:46;12.00;;;10.80;;
50066;SDS011;35952;52.524;13.340;2023-05-02T06:39:12;10.83;;;9.40;;
50066;SDS011;35952;52.524;13.340;2023-05-02T06:41:37;11.93;;;10.73;;
50066;SDS011;35952;52.524;13.340;2023-05-02T06:44:03;11.23;;;9.57;;
50066;SDS011;35952;52.524;13.340;2023-05-02T06:46:29;14.40;;;10.37;;
50066;SDS011;35952;52.524;13.340;2023-05-02T06:48:55;11.87;;;10.13;;
50066;SDS011;35952;52.524;13.340;2023-05-02T06:51:21;11.23;;;9.70;;
50066;SDS011;35952;52.524;13.340;2023-05-02T06:53:46;9.90;;;8.33;;
50066;SDS011;35952;52.524;13.340;2023-05-02T06:56:12;12.60;;;8.90;;
50066;SDS011;35952;52.524;13.340;2023-05-02T06:58:37;12.43;;;9.63;;
50066;SDS011;35952;52.524;13.340;2023-05-02T07:01:03;8.53;;;7.67;;
50066;SDS011;35952;52.524;13.340;2023-05-02T07:03:28;12.03;;;9.77;;
50066;SDS011;35952;52.524;13.340;2023-05-02T07:05:54;11.10;;;8.30;;
50066;SDS011;35952;52.524;13.340;2023-05-02T07:08:20;9.97;;;7.97;;
50066;SDS011;35952;52.524;13.340;2023-05-02T07:10:46;8.50;;;7.57;;
50066;SDS011;35952;52.524;13.340;2023-05-02T07:13:12;8.30;;;7.53;;
50066;SDS011;35952;52.524;13.340;2023-05-02T07:15:37;10.83;;;8.10;;
50066;SDS011;35952;52.524;13.340;2023-05-02T07:18:03;10.13;;;7.93;;
50066;SDS011;35952;52.524;13.340;2023-05-02T07:20:29;8.13;;;7.33;;
50066;SDS011;35952;52.524;13.340;2023-05-02T07:22:54;8.80;;;7.90;;
50066;SDS011;35952;52.524;13.340;2023-05-02T07:25:20;9.17;;;7.80;;
50066;SDS011;35952;52.524;13.340;2023-05-02T07:27:45;7.83;;;7.07;;
50066;SDS011;35952;52.524;13.340;2023-05-02T07:30:11;11.17;;;8.73;;
50066;SDS011;35952;52.524;13.340;2023-05-02T07:32:37;10.93;;;7.67;;
50066;SDS011;35952;52.524;13.340;2023-05-02T07:35:02;8.70;;;6.90;;
50066;SDS011;35952;52.524;13.340;2023-05-02T07:37:31;11.07;;;8.27;;
50066;SDS011;35952;52.524;13.340;2023-05-02T07:39:58;9.87;;;8.10;;
50066;SDS011;35952;52.524;13.340;2023-05-02T07:42:27;11.03;;;7.80;;
50066;SDS011;35952;52.524;13.340;2023-05-02T07:44:56;8.00;;;7.30;;
50066;SDS011;35952;52.524;13.340;2023-05-02T07:47:22;10.03;;;7.93;;
50066;SDS011;35952;52.524;13.340;2023-05-02T07:49:51;7.33;;;6.53;;
50066;SDS011;35952;52.524;13.340;2023-05-02T07:52:18;9.13;;;6.70;;
50066;SDS011;35952;52.524;13.340;2023-05-02T07:54:44;11.40;;;7.27;;
50066;SDS011;35952;52.524;13.340;2023-05-02T07:57:11;8.03;;;7.17;;
50066;SDS011;35952;52.524;13.340;2023-05-02T07:59:37;7.80;;;6.57;;
50066;SDS011;35952;52.524;13.340;2023-05-02T08:02:03;10.17;;;8.07;;
50066;SDS011;35952;52.524;13.340;2023-05-02T08:04:28;8.87;;;7.97;;
50066;SDS011;35952;52.524;13.340;2023-05-02T08:06:54;9.00;;;7.80;;
50066;SDS011;35952;52.524;13.340;2023-05-02T08:09:20;10.40;;;7.80;;
50066;SDS011;35952;52.524;13.340;2023-05-02T08:11:45;8.90;;;7.50;;
50066;SDS011;35952;52.524;13.340;2023-05-02T08:14:11;10.70;;;6.27;;
50066;SDS011;35952;52.524;13.340;2023-05-02T08:16:37;6.93;;;5.47;;
50066;SDS011;35952;52.524;13.340;2023-05-02T08:19:02;8.43;;;5.80;;
50066;SDS011;35952;52.524;13.340;2023-05-02T08:21:28;11.63;;;7.03;;
50066;SDS011;35952;52.524;13.340;2023-05-02T08:23:56;6.53;;;5.83;;
50066;SDS011;35952;52.524;13.340;2023-05-02T08:26:22;6.20;;;5.50;;
50066;SDS011;35952;52.524;13.340;2023-05-02T08:28:49;6.77;;;5.20;;
50066;SDS011;35952;52.524;13.340;2023-05-02T08:31:16;5.10;;;4.63;;
50066;SDS011;35952;52.524;13.340;2023-05-02T08:33:42;4.40;;;4.00;;
50066;SDS011;35952;52.524;13.340;2023-05-02T08:36:11;5.70;;;5.17;;
50066;SDS011;35952;52.524;13.340;2023-05-02T08:38:38;9.30;;;5.10;;
50066;SDS011;35952;52.524;13.340;2023-05-02T08:41:10;5.90;;;4.90;;
50066;SDS011;35952;52.524;13.340;2023-05-02T08:43:37;5.27;;;4.77;;
50066;SDS011;35952;52.524;13.340;2023-05-02T08:46:04;5.70;;;5.20;;
50066;SDS011;35952;52.524;13.340;2023-05-02T08:48:36;6.00;;;4.70;;
50066;SDS011;35952;52.524;13.340;2023-05-02T08:51:03;5.50;;;5.00;;
50066;SDS011;35952;52.524;13.340;2023-05-02T08:53:35;6.80;;;5.00;;
50066;SDS011;35952;52.524;13.340;2023-05-02T08:56:02;5.40;;;3.93;;
50066;SDS011;35952;52.524;13.340;2023-05-02T08:58:28;5.90;;;5.30;;
50066;SDS011;35952;52.524;13.340;2023-05-02T09:00:59;4.97;;;4.47;;
50066;SDS011;35952;52.524;13.340;2023-05-02T09:03:30;5.73;;;5.17;;
50066;SDS011;35952;52.524;13.340;2023-05-02T09:06:04;4.47;;;4.07;;
50066;SDS011;35952;52.524;13.340;2023-05-02T09:08:30;5.10;;;4.40;;
50066;SDS011;35952;52.524;13.340;2023-05-02T09:10:56;6.50;;;5.10;;
50066;SDS011;35952;52.524;13.340;2023-05-02T09:13:34;5.60;;;5.10;;
50066;SDS011;35952;52.524;13.340;2023-05-02T09:16:08;6.77;;;6.17;;
50066;SDS011;35952;52.524;13.340;2023-05-02T09:21:12;5.50;;;5.00;;
50066;SDS011;35952;52.524;13.340;2023-05-02T09:23:46;6.70;;;4.93;;
50066;SDS011;35952;52.524;13.340;2023-05-02T09:26:20;6.10;;;4.57;;
50066;SDS011;35952;52.524;13.340;2023-05-02T09:28:57;5.70;;;4.70;;
50066;SDS011;35952;52.524;13.340;2023-05-02T09:31:29;6.60;;;5.17;;
50066;SDS011;35952;52.524;13.340;2023-05-02T09:34:10;5.73;;;4.73;;
50066;SDS011;35952;52.524;13.340;2023-05-02T09:36:42;5.70;;;4.60;;
50066;SDS011;35952;52.524;13.340;2023-05-02T09:39:15;5.50;;;4.50;;
50066;SDS011;35952;52.524;13.340;2023-05-02T09:41:43;7.33;;;5.00;;
50066;SDS011;35952;52.524;13.340;2023-05-02T09:44:14;5.47;;;4.80;;
50066;SDS011;35952;52.524;13.340;2023-05-02T09:46:43;4.77;;;4.10;;
50066;SDS011;35952;52.524;13.340;2023-05-02T09:49:13;5.10;;;4.40;;
50066;SDS011;35952;52.524;13.340;2023-05-02T09:51:39;3.80;;;3.50;;
50066;SDS011;35952;52.524;13.340;2023-05-02T09:54:05;5.60;;;5.03;;
50066;SDS011;35952;52.524;13.340;2023-05-02T09:56:30;5.13;;;4.63;;
50066;SDS011;35952;52.524;13.340;2023-05-02T09:59:15;5.00;;;4.60;;
50066;SDS011;35952;52.524;13.340;2023-05-02T10:01:41;5.40;;;4.90;;
50066;SDS011;35952;52.524;13.340;2023-05-02T10:04:13;5.53;;;5.03;;
50066;SDS011;35952;52.524;13.340;2023-05-02T10:06:43;5.33;;;4.83;;
50066;SDS011;35952;52.524;13.340;2023-05-02T10:09:10;5.47;;;4.93;;
50066;SDS011;35952;52.524;13.340;2023-05-02T10:11:45;5.70;;;5.10;;
50066;SDS011;35952;52.524;13.340;2023-05-02T10:14:14;5.97;;;5.37;;
50066;SDS011;35952;52.524;13.340;2023-05-02T10:19:52;4.67;;;4.27;;
50066;SDS011;35952;52.524;13.340;2023-05-02T10:22:21;29.47;;;5.73;;
50066;SDS011;35952;52.524;13.340;2023-05-02T10:24:49;5.00;;;4.50;;
50066;SDS011;35952;52.524;13.340;2023-05-02T10:27:17;5.70;;;4.63;;
50066;SDS011;35952;52.524;13.340;2023-05-02T10:29:43;4.73;;;4.23;;
50066;SDS011;35952;52.524;13.340;2023-05-02T10:32:10;4.50;;;4.10;;
50066;SDS011;35952;52.524;13.340;2023-05-02T10:34:37;4.57;;;4.20;;
50066;SDS011;35952;52.524;13.340;2023-05-02T10:37:04;6.47;;;5.87;;
50066;SDS011;35952;52.524;13.340;2023-05-02T10:39:30;7.13;;;4.73;;
50066;SDS011;35952;52.524;13.340;2023-05-02T10:41:56;6.30;;;5.63;;
50066;SDS011;35952;52.524;13.340;2023-05-02T10:44:39;10.73;;;5.13;;
50066;SDS011;35952;52.524;13.340;2023-05-02T10:47:18;5.20;;;4.40;;
50066;SDS011;35952;52.524;13.340;2023-05-02T10:49:49;6.30;;;4.67;;
50066;SDS011;35952;52.524;13.340;2023-05-02T10:52:25;6.00;;;4.23;;
50066;SDS011;35952;52.524;13.340;2023-05-02T10:55:11;6.97;;;5.50;;
50066;SDS011;35952;52.524;13.340;2023-05-02T11:00:29;6.83;;;6.00;;
50066;SDS011;35952;52.524;13.340;2023-05-02T11:02:58;7.17;;;6.10;;
50066;SDS011;35952;52.524;13.340;2023-05-02T11:05:25;9.93;;;7.20;;
50066;SDS011;35952;52.524;13.340;2023-05-02T11:10:38;15.27;;;7.53;;
50066;SDS011;35952;52.524;13.340;2023-05-02T11:13:04;17.70;;;8.57;;
50066;SDS011;35952;52.524;13.340;2023-05-02T11:18:03;7.50;;;6.77;;
50066;SDS011;35952;52.524;13.340;2023-05-02T11:20:31;14.17;;;6.70;;
50066;SDS011;35952;52.524;13.340;2023-05-02T11:23:18;9.57;;;7.03;;
50066;SDS011;35952;52.524;13.340;2023-05-02T11:25:58;7.40;;;5.47;;
50066;SDS011;35952;52.524;13.340;2023-05-02T11:28:42;11.13;;;6.47;;
50066;SDS011;35952;52.524;13.340;2023-05-02T11:33:58;6.80;;;6.10;;
50066;SDS011;35952;52.524;13.340;2023-05-02T11:36:28;6.80;;;5.73;;
50066;SDS011;35952;52.524;13.340;2023-05-02T11:38:54;9.63;;;5.10;;
50066;SDS011;35952;52.524;13.340;2023-05-02T11:41:36;9.30;;;5.50;;
50066;SDS011;35952;52.524;13.340;2023-05-02T11:44:06;8.20;;;5.50;;
50066;SDS011;35952;52.524;13.340;2023-05-02T11:46:31;6.20;;;4.70;;
50066;SDS011;35952;52.524;13.340;2023-05-02T11:48:57;9.93;;;6.00;;
50066;SDS011;35952;52.524;13.340;2023-05-02T11:51:23;6.87;;;4.93;;
50066;SDS011;35952;52.524;13.340;2023-05-02T11:53:50;4.90;;;4.47;;
50066;SDS011;35952;52.524;13.340;2023-05-02T11:56:16;6.63;;;5.50;;
50066;SDS011;35952;52.524;13.340;2023-05-02T11:58:56;6.47;;;5.33;;
50066;SDS011;35952;52.524;13.340;2023-05-02T12:01:28;6.20;;;4.80;;
50066;SDS011;35952;52.524;13.340;2023-05-02T12:04:04;9.00;;;5.20;;
50066;SDS011;35952;52.524;13.340;2023-05-02T12:06:34;11.50;;;4.70;;
50066;SDS011;35952;52.524;13.340;2023-05-02T12:09:32;6.80;;;5.50;;
50066;SDS011;35952;52.524;13.340;2023-05-02T12:11:52;6.53;;;4.60;;
50066;SDS011;35952;52.524;13.340;2023-05-02T12:14:24;4.20;;;3.80;;
50066;SDS011;35952;52.524;13.340;2023-05-02T12:16:54;8.23;;;4.33;;
50066;SDS011;35952;52.524;13.340;2023-05-02T12:19:22;7.43;;;5.03;;
50066;SDS011;35952;52.524;13.340;2023-05-02T12:21:48;5.10;;;4.53;;
50066;SDS011;35952;52.524;13.340;2023-05-02T12:24:14;9.93;;;5.20;;
50066;SDS011;35952;52.524;13.340;2023-05-02T12:26:40;12.80;;;6.10;;
50066;SDS011;35952;52.524;13.340;2023-05-02T12:29:05;6.33;;;5.40;;
50066;SDS011;35952;52.524;13.340;2023-05-02T12:31:32;16.03;;;6.67;;
50066;SDS011;35952;52.524;13.340;2023-05-02T12:33:58;11.23;;;5.30;;
50066;SDS011;35952;52.524;13.340;2023-05-02T12:36:24;7.53;;;4.87;;
50066;SDS011;35952;52.524;13.340;2023-05-02T12:38:53;8.47;;;5.10;;
50066;SDS011;35952;52.524;13.340;2023-05-02T12:41:33;7.97;;;5.67;;
50066;SDS011;35952;52.524;13.340;2023-05-02T12:44:01;10.13;;;5.97;;
50066;SDS011;35952;52.524;13.340;2023-05-02T12:46:27;5.33;;;4.80;;
50066;SDS011;35952;52.524;13.340;2023-05-02T12:49:03;9.07;;;5.57;;
50066;SDS011;35952;52.524;13.340;2023-05-02T12:51:32;8.37;;;6.13;;
50066;SDS011;35952;52.524;13.340;2023-05-02T12:53:58;9.50;;;5.30;;
50066;SDS011;35952;52.524;13.340;2023-05-02T12:56:23;12.40;;;6.60;;
50066;SDS011;35952;52.524;13.340;2023-05-02T12:58:51;11.13;;;4.90;;
50066;SDS011;35952;52.524;13.340;2023-05-02T13:01:17;11.23;;;5.43;;
50066;SDS011;35952;52.524;13.340;2023-05-02T13:03:42;8.10;;;5.33;;
50066;SDS011;35952;52.524;13.340;2023-05-02T13:06:08;7.37;;;4.80;;
50066;SDS011;35952;52.524;13.340;2023-05-02T13:08:34;9.80;;;5.67;;
50066;SDS011;35952;52.524;13.340;2023-05-02T13:11:03;8.70;;;4.00;;
50066;SDS011;35952;52.524;13.340;2023-05-02T13:13:29;9.10;;;5.00;;
50066;SDS011;35952;52.524;13.340;2023-05-02T13:15:56;7.47;;;4.67;;
50066;SDS011;35952;52.524;13.340;2023-05-02T13:18:22;7.07;;;4.70;;
50066;SDS011;35952;52.524;13.340;2023-05-02T13:20:47;9.90;;;7.80;;
50066;SDS011;35952;52.524;13.340;2023-05-02T13:23:13;10.47;;;5.03;;
50066;SDS011;35952;52.524;13.340;2023-05-02T13:25:40;8.97;;;4.80;;
50066;SDS011;35952;52.524;13.340;2023-05-02T13:28:06;8.77;;;4.80;;
50066;SDS011;35952;52.524;13.340;2023-05-02T13:30:31;7.80;;;4.30;;
50066;SDS011;35952;52.524;13.340;2023-05-02T13:32:57;15.80;;;4.77;;
50066;SDS011;35952;52.524;13.340;2023-05-02T13:35:23;10.00;;;4.50;;
50066;SDS011;35952;52.524;13.340;2023-05-02T13:37:49;9.77;;;5.00;;
50066;SDS011;35952;52.524;13.340;2023-05-02T13:40:15;11.07;;;5.43;;
50066;SDS011;35952;52.524;13.340;2023-05-02T13:42:40;9.10;;;5.13;;
50066;SDS011;35952;52.524;13.340;2023-05-02T13:45:06;7.53;;;5.53;;
50066;SDS011;35952;52.524;13.340;2023-05-02T13:47:32;6.40;;;5.13;;
50066;SDS011;35952;52.524;13.340;2023-05-02T13:49:58;10.30;;;6.40;;
50066;SDS011;35952;52.524;13.340;2023-05-02T13:52:23;9.17;;;4.93;;
50066;SDS011;35952;52.524;13.340;2023-05-02T13:54:49;8.90;;;5.20;;
50066;SDS011;35952;52.524;13.340;2023-05-02T13:57:15;11.80;;;5.10;;
50066;SDS011;35952;52.524;13.340;2023-05-02T13:59:40;10.90;;;5.23;;
50066;SDS011;35952;52.524;13.340;2023-05-02T14:02:06;8.10;;;4.63;;
50066;SDS011;35952;52.524;13.340;2023-05-02T14:04:31;7.50;;;5.13;;
50066;SDS011;35952;52.524;13.340;2023-05-02T14:06:57;12.27;;;4.70;;
50066;SDS011;35952;52.524;13.340;2023-05-02T14:09:22;8.87;;;5.33;;
50066;SDS011;35952;52.524;13.340;2023-05-02T14:11:48;7.20;;;4.63;;
50066;SDS011;35952;52.524;13.340;2023-05-02T14:14:13;9.50;;;5.80;;
50066;SDS011;35952;52.524;13.340;2023-05-02T14:16:39;7.60;;;5.07;;
50066;SDS011;35952;52.524;13.340;2023-05-02T14:19:05;8.50;;;5.30;;
50066;SDS011;35952;52.524;13.340;2023-05-02T14:21:30;7.77;;;5.00;;
50066;SDS011;35952;52.524;13.340;2023-05-02T14:23:56;9.67;;;5.43;;
50066;SDS011;35952;52.524;13.340;2023-05-02T14:26:22;6.63;;;4.80;;
50066;SDS011;35952;52.524;13.340;2023-05-02T14:28:47;8.87;;;4.93;;
50066;SDS011;35952;52.524;13.340;2023-05-02T14:31:13;9.77;;;4.80;;
50066;SDS011;35952;52.524;13.340;2023-05-02T14:33:39;10.10;;;6.03;;
50066;SDS011;35952;52.524;13.340;2023-05-02T14:36:04;6.40;;;4.60;;
50066;SDS011;35952;52.524;13.340;2023-05-02T14:38:30;7.57;;;4.83;;
50066;SDS011;35952;52.524;13.340;2023-05-02T14:40:56;9.73;;;5.90;;
50066;SDS011;35952;52.524;13.340;2023-05-02T14:43:21;12.17;;;5.57;;
50066;SDS011;35952;52.524;13.340;2023-05-02T14:45:47;6.60;;;4.90;;
50066;SDS011;35952;52.524;13.340;2023-05-02T14:48:12;9.30;;;5.33;;
50066;SDS011;35952;52.524;13.340;2023-05-02T14:50:40;7.17;;;5.03;;
50066;SDS011;35952;52.524;13.340;2023-05-02T14:53:06;7.70;;;5.10;;
50066;SDS011;35952;52.524;13.340;2023-05-02T14:55:38;8.90;;;4.50;;
50066;SDS011;35952;52.524;13.340;2023-05-02T14:58:07;10.20;;;4.90;;
50066;SDS011;35952;52.524;13.340;2023-05-02T15:00:34;7.13;;;5.00;;
50066;SDS011;35952;52.524;13.340;2023-05-02T15:03:01;9.30;;;5.40;;
50066;SDS011;35952;52.524;13.340;2023-05-02T15:05:28;9.60;;;4.53;;